createdAt,value
2023-05-12T00:00:35.323Z,15.82
2023-05-12T00:03:05.417Z,15.84
2023-05-12T00:05:37.651Z,15.81
2023-05-12T00:08:08.919Z,15.81
2023-05-12T00:10:38.796Z,15.80
2023-05-12T00:13:10.053Z,15.86
2023-05-12T00:15:42.646Z,15.84
2023-05-12T00:18:12.764Z,15.83
2023-05-12T00:20:43.115Z,15.82
2023-05-12T00:23:14.097Z,15.81
2023-05-12T00:25:44.020Z,15.72
2023-05-12T00:28:13.959Z,15.61
2023-05-12T00:30:46.562Z,15.59
2023-05-12T00:33:17.344Z,15.61
2023-05-12T00:35:48.169Z,15.65
2023-05-12T00:38:18.041Z,15.72
2023-05-12T00:40:47.858Z,15.63
2023-05-12T00:43:17.706Z,15.61
2023-05-12T00:45:50.645Z,15.53
2023-05-12T00:48:20.703Z,15.52
2023-05-12T00:50:50.704Z,15.51
2023-05-12T00:53:20.734Z,15.41
2023-05-12T00:55:50.912Z,15.36
2023-05-12T00:58:20.821Z,15.34
2023-05-12T01:00:54.880Z,15.41
2023-05-12T01:03:25.300Z,15.48
2023-05-12T01:05:59.458Z,15.51
2023-05-12T01:08:30.064Z,15.55
2023-05-12T01:10:59.848Z,15.56
2023-05-12T01:13:30.561Z,15.48
2023-05-12T01:16:06.111Z,15.50
2023-05-12T01:18:38.836Z,15.47
2023-05-12T01:21:09.567Z,15.43
2023-05-12T01:23:44.589Z,15.44
2023-05-12T01:26:17.143Z,15.47
2023-05-12T01:28:50.728Z,15.50
2023-05-12T01:31:21.251Z,15.53
2023-05-12T01:33:51.272Z,15.57
2023-05-12T01:36:21.168Z,15.58
2023-05-12T01:38:50.962Z,15.61
2023-05-12T01:41:23.699Z,15.65
2023-05-12T01:43:53.488Z,15.67
2023-05-12T01:46:23.519Z,15.69
2023-05-12T01:48:53.337Z,15.69
2023-05-12T01:51:23.614Z,15.68
2023-05-12T01:53:53.382Z,15.68
2023-05-12T01:56:26.739Z,15.69
2023-05-12T01:58:56.652Z,15.68
2023-05-12T02:01:29.255Z,15.69
2023-05-12T02:03:59.350Z,15.69
2023-05-12T02:06:29.585Z,15.71
2023-05-12T02:08:59.421Z,15.69
2023-05-12T02:11:32.053Z,15.71
2023-05-12T02:14:01.934Z,15.75
2023-05-12T02:16:31.967Z,15.78
2023-05-12T02:19:01.872Z,15.80
2023-05-12T02:21:31.728Z,15.81
2023-05-12T02:24:01.630Z,15.84
2023-05-12T02:26:34.083Z,15.87
2023-05-12T02:29:03.889Z,15.91
2023-05-12T02:31:33.776Z,15.92
2023-05-12T02:34:06.329Z,15.94
2023-05-12T02:36:36.632Z,16.00
2023-05-12T02:39:06.620Z,16.04
2023-05-12T02:41:39.188Z,16.06
2023-05-12T02:44:09.031Z,16.07
2023-05-12T02:46:38.922Z,15.98
2023-05-12T02:49:08.857Z,15.98
2023-05-12T02:51:40.898Z,15.91
2023-05-12T02:54:10.870Z,15.89
2023-05-12T02:56:43.342Z,15.89
2023-05-12T02:59:13.144Z,15.86
2023-05-12T03:01:43.654Z,15.85
2023-05-12T03:04:13.683Z,15.88
2023-05-12T03:06:43.732Z,15.91
2023-05-12T03:09:13.673Z,15.87
2023-05-12T03:11:46.398Z,15.85
2023-05-12T03:14:16.220Z,15.80
2023-05-12T03:16:46.197Z,15.82
2023-05-12T03:19:16.122Z,15.82
2023-05-12T03:21:46.111Z,15.81
2023-05-12T03:24:15.987Z,15.81
2023-05-12T03:26:48.789Z,15.76
2023-05-12T03:29:18.598Z,15.66
2023-05-12T03:31:48.946Z,15.67
2023-05-12T03:34:18.924Z,15.62
2023-05-12T03:36:48.886Z,15.58
2023-05-12T03:39:18.896Z,15.56
2023-05-12T03:41:51.410Z,15.58
2023-05-12T03:44:22.014Z,15.61
2023-05-12T03:46:52.169Z,15.64
2023-05-12T03:49:22.184Z,15.60
2023-05-12T03:51:52.304Z,15.59
2023-05-12T03:54:22.149Z,15.59
2023-05-12T03:56:55.304Z,15.58
2023-05-12T03:59:25.160Z,15.61
2023-05-12T04:01:58.213Z,15.61
2023-05-12T04:04:27.995Z,15.62
2023-05-12T04:06:57.906Z,15.59
2023-05-12T04:09:28.299Z,15.56
2023-05-12T04:12:01.270Z,15.54
2023-05-12T04:14:41.776Z,15.53
2023-05-12T04:17:14.104Z,15.53
2023-05-12T04:19:44.064Z,15.52
2023-05-12T04:22:14.012Z,15.53
2023-05-12T04:24:44.114Z,15.51
2023-05-12T04:27:17.527Z,15.50
2023-05-12T04:29:47.411Z,15.48
2023-05-12T04:32:17.425Z,15.44
2023-05-12T04:34:48.338Z,15.43
2023-05-12T04:37:18.177Z,15.44
2023-05-12T04:39:48.479Z,15.46
2023-05-12T04:42:21.042Z,15.44
2023-05-12T04:44:50.899Z,15.44
2023-05-12T04:47:20.977Z,15.47
2023-05-12T04:49:50.895Z,15.48
2023-05-12T04:52:21.580Z,15.49
2023-05-12T04:54:51.441Z,15.48
2023-05-12T04:57:24.012Z,15.48
2023-05-12T04:59:53.865Z,15.50
2023-05-12T05:02:23.854Z,15.53
2023-05-12T05:04:53.928Z,15.56
2023-05-12T05:07:23.872Z,15.60
2023-05-12T05:09:54.024Z,15.63
2023-05-12T05:12:26.565Z,15.64
2023-05-12T05:14:56.401Z,15.66
2023-05-12T05:17:26.471Z,15.68
2023-05-12T05:19:59.665Z,15.71
2023-05-12T05:22:30.174Z,15.73
2023-05-12T05:25:00.223Z,15.70
2023-05-12T05:27:32.615Z,15.71
2023-05-12T05:30:02.512Z,15.73
2023-05-12T05:32:32.560Z,15.78
2023-05-12T05:35:02.922Z,15.81
2023-05-12T05:37:32.975Z,15.85
2023-05-12T05:40:02.823Z,15.83
2023-05-12T05:42:35.353Z,15.83
2023-05-12T05:45:05.223Z,15.86
2023-05-12T05:47:36.396Z,15.88
2023-05-12T05:50:07.037Z,15.87
2023-05-12T05:52:36.991Z,15.85
2023-05-12T05:55:08.138Z,15.83
2023-05-12T05:57:40.694Z,15.80
2023-05-12T06:00:14.615Z,15.83
2023-05-12T06:02:44.681Z,15.88
2023-05-12T06:05:14.805Z,15.89
2023-05-12T06:07:44.677Z,15.90
2023-05-12T06:10:14.508Z,15.90
2023-05-12T06:12:47.112Z,15.83
2023-05-12T06:15:17.134Z,15.82
2023-05-12T06:17:48.892Z,15.80
2023-05-12T06:20:18.785Z,15.85
2023-05-12T06:22:48.689Z,15.93
2023-05-12T06:25:18.833Z,16.04
2023-05-12T06:27:54.163Z,16.15
2023-05-12T06:30:24.146Z,16.30
2023-05-12T06:32:54.094Z,16.42
2023-05-12T06:35:24.014Z,16.51
2023-05-12T06:37:53.886Z,16.65
2023-05-12T06:40:23.904Z,16.77
2023-05-12T06:42:56.336Z,16.85
2023-05-12T06:45:26.389Z,16.86
2023-05-12T06:47:57.962Z,16.89
2023-05-12T06:50:27.953Z,16.86
2023-05-12T06:52:57.830Z,16.88
2023-05-12T06:55:27.844Z,16.87
2023-05-12T06:58:00.274Z,16.81
2023-05-12T07:00:30.295Z,16.81
2023-05-12T07:03:00.378Z,16.82
2023-05-12T07:05:30.284Z,16.83
2023-05-12T07:08:00.153Z,16.87
2023-05-12T07:10:30.105Z,16.88
2023-05-12T07:13:02.702Z,16.90
2023-05-12T07:15:33.053Z,16.91
2023-05-12T07:18:03.063Z,16.82
2023-05-12T07:20:32.934Z,16.78
2023-05-12T07:23:02.768Z,16.80
2023-05-12T07:25:32.760Z,16.85
2023-05-12T07:28:05.253Z,16.91
2023-05-12T07:30:35.178Z,16.98
2023-05-12T07:33:05.049Z,16.98
2023-05-12T07:35:35.454Z,16.96
2023-05-12T07:38:06.541Z,16.95
2023-05-12T07:40:36.332Z,16.92
2023-05-12T07:43:08.789Z,16.92
2023-05-12T07:45:38.703Z,16.93
2023-05-12T07:48:09.065Z,16.91
2023-05-12T07:50:39.088Z,16.88
2023-05-12T07:53:11.141Z,16.92
2023-05-12T07:55:41.487Z,16.96
2023-05-12T07:58:14.002Z,16.97
2023-05-12T08:00:44.974Z,16.97
2023-05-12T08:03:16.598Z,16.99
2023-05-12T08:05:46.659Z,17.04
2023-05-12T08:08:16.891Z,17.06
2023-05-12T08:10:46.949Z,17.09
2023-05-12T08:13:19.536Z,17.15
2023-05-12T08:15:49.447Z,17.17
2023-05-12T08:18:19.345Z,17.12
2023-05-12T08:20:49.699Z,17.05
2023-05-12T08:23:20.143Z,17.03
2023-05-12T08:25:50.572Z,17.06
2023-05-12T08:28:23.174Z,17.07
2023-05-12T08:30:53.232Z,17.07
2023-05-12T08:33:23.319Z,17.06
2023-05-12T08:35:53.498Z,17.08
2023-05-12T08:38:23.794Z,17.08
2023-05-12T08:41:07.071Z,17.08
2023-05-12T08:43:45.083Z,17.13
2023-05-12T08:46:15.307Z,17.15
2023-05-12T08:48:48.926Z,17.16
2023-05-12T08:51:21.536Z,17.20
2023-05-12T08:53:53.064Z,17.22
2023-05-12T08:59:03.860Z,17.33
2023-05-12T09:01:37.982Z,17.39
2023-05-12T09:04:11.592Z,17.35
2023-05-12T09:06:41.852Z,17.37
2023-05-12T09:09:18.873Z,17.44
2023-05-12T09:11:57.000Z,17.53
2023-05-12T09:14:36.343Z,17.57
2023-05-12T09:17:09.519Z,17.65
2023-05-12T09:19:43.014Z,17.73
2023-05-12T09:22:18.579Z,17.79
2023-05-12T09:24:48.868Z,17.86
2023-05-12T09:27:29.260Z,17.88
2023-05-12T09:30:12.017Z,17.91
2023-05-12T09:32:46.530Z,17.98
2023-05-12T09:35:24.655Z,17.98
2023-05-12T09:38:04.237Z,18.05
2023-05-12T09:40:39.204Z,18.13
2023-05-12T09:43:12.544Z,18.19
2023-05-12T09:45:56.741Z,18.27
2023-05-12T09:48:30.963Z,18.37
2023-05-12T09:51:12.983Z,18.46
2023-05-12T09:53:51.153Z,18.51
2023-05-12T09:56:23.087Z,18.61
2023-05-12T09:59:04.169Z,18.69
2023-05-12T10:01:36.998Z,18.81
2023-05-12T10:04:10.636Z,18.86
2023-05-12T10:06:47.588Z,18.93
2023-05-12T10:09:26.627Z,19.05
2023-05-12T10:11:56.798Z,19.06
2023-05-12T10:14:27.104Z,19.14
2023-05-12T10:17:00.570Z,19.22
2023-05-12T10:19:33.305Z,19.32
2023-05-12T10:22:04.766Z,19.23
2023-05-12T10:24:36.858Z,19.26
2023-05-12T10:27:08.675Z,19.32
2023-05-12T10:29:40.497Z,19.38
2023-05-12T10:32:14.791Z,19.44
2023-05-12T10:34:45.324Z,19.51
2023-05-12T10:37:16.124Z,19.57
2023-05-12T10:39:55.068Z,19.63
2023-05-12T10:42:27.316Z,19.73
2023-05-12T10:44:59.638Z,19.78
2023-05-12T10:47:40.134Z,19.73
2023-05-12T10:50:17.758Z,19.82
2023-05-12T10:52:56.728Z,19.87
2023-05-12T10:55:34.728Z,19.99
2023-05-12T10:58:09.796Z,20.18
2023-05-12T11:00:48.554Z,20.29
2023-05-12T11:03:28.513Z,20.40
2023-05-12T11:06:03.013Z,20.52
2023-05-12T11:08:44.124Z,20.51
2023-05-12T11:11:22.457Z,20.56
2023-05-12T11:13:52.525Z,20.64
2023-05-12T11:16:29.022Z,20.72
2023-05-12T11:19:09.020Z,20.77
2023-05-12T11:21:40.107Z,20.90
2023-05-12T11:24:14.864Z,21.00
2023-05-12T11:26:44.723Z,21.07
2023-05-12T11:29:14.586Z,21.15
2023-05-12T11:31:44.468Z,21.26
2023-05-12T11:34:17.067Z,21.27
2023-05-12T11:36:47.550Z,21.35
2023-05-12T11:39:22.230Z,21.35
2023-05-12T11:42:02.047Z,21.33
2023-05-12T11:44:35.763Z,21.35
2023-05-12T11:47:14.755Z,21.35
2023-05-12T11:49:54.869Z,21.34
2023-05-12T11:52:26.755Z,21.46
2023-05-12T11:55:01.732Z,21.55
2023-05-12T11:57:33.635Z,21.68
2023-05-12T12:00:05.301Z,21.79
2023-05-12T12:02:36.165Z,21.91
2023-05-12T12:05:21.301Z,21.96
2023-05-12T12:07:51.546Z,22.05
2023-05-12T12:10:22.238Z,22.16
2023-05-12T12:12:52.095Z,22.25
2023-05-12T12:15:22.113Z,22.31
2023-05-12T12:17:52.128Z,22.37
2023-05-12T12:20:25.329Z,22.29
2023-05-12T12:22:55.998Z,22.32
2023-05-12T12:25:26.485Z,22.33
2023-05-12T12:27:56.375Z,22.31
2023-05-12T12:30:26.301Z,22.29
2023-05-12T12:32:56.337Z,22.26
2023-05-12T12:35:29.086Z,22.25
2023-05-12T12:37:58.960Z,22.25
2023-05-12T12:40:31.554Z,22.23
2023-05-12T12:43:01.822Z,22.25
2023-05-12T12:45:31.676Z,22.27
2023-05-12T12:48:03.959Z,22.20
2023-05-12T12:50:37.897Z,22.19
2023-05-12T12:53:07.964Z,22.13
2023-05-12T12:55:38.017Z,22.07
2023-05-12T12:58:08.184Z,22.09
2023-05-12T13:00:38.108Z,22.12
2023-05-12T13:03:08.443Z,22.15
2023-05-12T13:05:40.995Z,22.27
2023-05-12T13:08:11.051Z,22.36
2023-05-12T13:10:42.220Z,22.45
2023-05-12T13:13:12.302Z,22.47
2023-05-12T13:15:42.716Z,22.48
2023-05-12T13:18:12.694Z,22.51
2023-05-12T13:20:45.820Z,22.53
2023-05-12T13:23:15.778Z,22.61
2023-05-12T13:25:46.686Z,22.69
2023-05-12T13:28:16.587Z,22.73
2023-05-12T13:30:46.922Z,22.77
2023-05-12T13:33:16.994Z,22.77
2023-05-12T13:35:49.848Z,22.74
2023-05-12T13:38:20.048Z,22.74
2023-05-12T13:40:50.227Z,22.75
2023-05-12T13:43:20.119Z,22.72
2023-05-12T13:45:53.599Z,22.76
2023-05-12T13:48:23.438Z,22.79
2023-05-12T13:50:56.057Z,22.86
2023-05-12T13:53:25.885Z,22.95
2023-05-12T13:55:55.786Z,23.00
2023-05-12T13:58:25.692Z,23.05
2023-05-12T14:00:55.867Z,23.12
2023-05-12T14:03:25.652Z,23.22
2023-05-12T14:06:01.027Z,23.22
2023-05-12T14:08:31.541Z,23.25
2023-05-12T14:11:01.601Z,23.31
2023-05-12T14:13:31.545Z,23.32
2023-05-12T14:16:21.562Z,23.39
2023-05-12T14:18:53.625Z,23.43
2023-05-12T14:21:26.146Z,23.46
2023-05-12T14:23:56.291Z,23.52
2023-05-12T14:26:27.747Z,23.71
2023-05-12T14:28:57.754Z,23.74
2023-05-12T14:31:28.434Z,23.75
2023-05-12T14:34:00.968Z,23.70
2023-05-12T14:36:33.453Z,23.63
2023-05-12T14:39:03.951Z,23.58
2023-05-12T14:41:33.907Z,23.56
2023-05-12T14:44:05.342Z,23.58
2023-05-12T14:46:35.218Z,23.58
2023-05-12T14:49:10.749Z,23.71
2023-05-12T14:51:43.665Z,23.72
2023-05-12T14:54:24.792Z,23.56
2023-05-12T14:56:56.730Z,23.29
2023-05-12T14:59:26.711Z,23.13
2023-05-12T15:02:02.072Z,23.02
2023-05-12T15:04:32.597Z,23.04
2023-05-12T15:07:05.279Z,23.13
2023-05-12T15:09:35.108Z,23.17
2023-05-12T15:12:09.325Z,23.14
2023-05-12T15:14:40.779Z,23.00
2023-05-12T15:17:10.658Z,22.86
2023-05-12T15:19:40.568Z,22.74
2023-05-12T15:22:13.134Z,22.55
2023-05-12T15:24:42.975Z,22.40
2023-05-12T15:27:12.968Z,22.30
2023-05-12T15:29:44.048Z,22.32
2023-05-12T15:32:13.920Z,22.22
2023-05-12T15:34:43.921Z,22.20
2023-05-12T15:37:19.329Z,22.24
2023-05-12T15:39:51.340Z,22.23
2023-05-12T15:42:26.169Z,22.18
2023-05-12T15:44:59.791Z,22.13
2023-05-12T15:47:30.159Z,22.07
2023-05-12T15:50:00.076Z,22.01
2023-05-12T15:52:32.664Z,21.92
2023-05-12T15:55:04.028Z,21.76
2023-05-12T15:57:34.161Z,21.74
2023-05-12T16:00:04.114Z,21.70
2023-05-12T16:02:34.082Z,21.70
2023-05-12T16:05:04.459Z,21.65
2023-05-12T16:07:36.928Z,21.56
2023-05-12T16:10:07.755Z,21.48
2023-05-12T16:12:37.697Z,21.36
2023-05-12T16:15:08.446Z,21.21
2023-05-12T16:17:38.446Z,21.15
2023-05-12T16:20:10.592Z,21.10
2023-05-12T16:22:43.157Z,21.05
2023-05-12T16:25:13.016Z,21.02
2023-05-12T16:27:42.969Z,21.03
2023-05-12T16:30:13.960Z,21.00
2023-05-12T16:32:43.868Z,20.93
2023-05-12T16:35:16.894Z,20.88
2023-05-12T16:37:49.393Z,20.87
2023-05-12T16:40:19.670Z,20.83
2023-05-12T16:42:49.541Z,20.80
2023-05-12T16:45:20.971Z,20.76
2023-05-12T16:47:51.378Z,20.79
2023-05-12T16:50:22.089Z,20.78
2023-05-12T16:52:54.898Z,20.75
2023-05-12T16:55:25.102Z,20.66
2023-05-12T16:57:54.970Z,20.64
2023-05-12T17:00:24.957Z,20.55
2023-05-12T17:02:54.862Z,20.56
2023-05-12T17:05:25.032Z,20.56
2023-05-12T17:07:57.582Z,20.50
2023-05-12T17:10:27.472Z,20.40
2023-05-12T17:12:58.652Z,20.34
2023-05-12T17:15:28.663Z,20.35
2023-05-12T17:17:58.617Z,20.39
2023-05-12T17:20:28.602Z,20.41
2023-05-12T17:23:01.683Z,20.33
2023-05-12T17:25:32.145Z,20.19
2023-05-12T17:28:01.956Z,20.10
2023-05-12T17:30:32.145Z,20.10
2023-05-12T17:33:02.263Z,20.14
2023-05-12T17:35:32.917Z,20.21
2023-05-12T17:38:05.445Z,20.24
2023-05-12T17:40:35.429Z,20.26
2023-05-12T17:43:05.498Z,20.22
2023-05-12T17:45:35.559Z,20.18
2023-05-12T17:48:06.476Z,20.17
2023-05-12T17:50:36.346Z,20.13
2023-05-12T17:53:09.042Z,20.09
2023-05-12T17:55:39.501Z,20.12
2023-05-12T17:58:09.491Z,20.18
2023-05-12T18:00:39.399Z,20.15
2023-05-12T18:03:12.206Z,20.11
2023-05-12T18:05:42.433Z,20.07
2023-05-12T18:08:14.978Z,20.01
2023-05-12T18:10:44.952Z,19.94
2023-05-12T18:13:15.703Z,19.81
2023-05-12T18:15:45.873Z,19.75
2023-05-12T18:18:15.910Z,19.72
2023-05-12T18:20:46.158Z,19.67
2023-05-12T18:23:18.802Z,19.63
2023-05-12T18:25:48.666Z,19.45
2023-05-12T18:28:18.578Z,19.36
2023-05-12T18:30:48.429Z,19.29
2023-05-12T18:33:18.379Z,19.26
2023-05-12T18:35:48.329Z,19.28
2023-05-12T18:38:21.358Z,19.26
2023-05-12T18:40:51.394Z,19.20
2023-05-12T18:43:21.713Z,19.15
2023-05-12T18:45:51.825Z,19.13
2023-05-12T18:48:21.709Z,19.12
2023-05-12T18:50:52.025Z,19.11
2023-05-12T18:53:24.976Z,19.00
2023-05-12T18:55:54.992Z,18.95
2023-05-12T18:58:25.296Z,18.93
2023-05-12T19:00:57.238Z,18.92
2023-05-12T19:03:31.278Z,18.92
2023-05-12T19:06:01.397Z,18.91
2023-05-12T19:08:33.956Z,18.88
2023-05-12T19:11:04.216Z,18.84
2023-05-12T19:13:34.238Z,18.76
2023-05-12T19:16:04.319Z,18.72
2023-05-12T19:18:34.675Z,18.67
2023-05-12T19:21:05.213Z,18.60
2023-05-12T19:23:37.789Z,18.56
2023-05-12T19:26:09.199Z,18.57
2023-05-12T19:28:39.251Z,18.53
2023-05-12T19:31:09.290Z,18.54
2023-05-12T19:33:39.289Z,18.54
2023-05-12T19:36:11.403Z,18.56
2023-05-12T19:38:44.680Z,18.53
2023-05-12T19:41:14.656Z,18.50
2023-05-12T19:43:44.843Z,18.48
2023-05-12T19:46:15.946Z,18.47
2023-05-12T19:48:46.391Z,18.51
2023-05-12T19:51:16.306Z,18.55
2023-05-12T19:53:48.908Z,18.57
2023-05-12T19:56:19.194Z,18.56
2023-05-12T19:58:49.217Z,18.55
2023-05-12T20:01:19.320Z,18.52
2023-05-12T20:03:49.305Z,18.47
2023-05-12T20:06:20.624Z,18.43
2023-05-12T20:08:53.044Z,18.36
2023-05-12T20:11:22.940Z,18.29
2023-05-12T20:13:53.155Z,18.25
2023-05-12T20:16:23.207Z,18.20
2023-05-12T20:18:55.049Z,18.14
2023-05-12T20:21:25.026Z,18.08
2023-05-12T20:23:57.508Z,18.02
2023-05-12T20:26:27.457Z,17.97
2023-05-12T20:28:57.421Z,17.82
2023-05-12T20:31:27.548Z,17.66
2023-05-12T20:33:58.130Z,17.49
2023-05-12T20:36:28.019Z,17.46
2023-05-12T20:39:00.930Z,17.48
2023-05-12T20:41:31.357Z,17.48
2023-05-12T20:44:01.296Z,17.50
2023-05-12T20:46:34.499Z,17.48
2023-05-12T20:49:06.329Z,17.47
2023-05-12T20:51:36.282Z,17.42
2023-05-12T20:54:09.230Z,17.31
2023-05-12T20:56:39.128Z,17.22
2023-05-12T20:59:09.299Z,17.20
2023-05-12T21:01:39.266Z,17.20
2023-05-12T21:04:09.180Z,17.09
2023-05-12T21:06:39.405Z,17.04
2023-05-12T21:09:12.062Z,17.03
2023-05-12T21:11:42.149Z,17.00
2023-05-12T21:14:12.353Z,16.99
2023-05-12T21:16:42.312Z,16.91
2023-05-12T21:19:12.357Z,16.85
2023-05-12T21:21:42.432Z,16.83
2023-05-12T21:24:14.943Z,16.80
2023-05-12T21:26:44.770Z,16.77
2023-05-12T21:29:14.657Z,16.74
2023-05-12T21:31:44.600Z,16.71
2023-05-12T21:34:14.661Z,16.69
2023-05-12T21:36:44.636Z,16.67
2023-05-12T21:39:17.340Z,16.64
2023-05-12T21:41:47.455Z,16.63
2023-05-12T21:44:17.396Z,16.61
2023-05-12T21:46:47.278Z,16.60
2023-05-12T21:49:17.256Z,16.60
2023-05-12T21:51:47.212Z,16.59
2023-05-12T21:54:19.725Z,16.58
2023-05-12T21:56:50.750Z,16.56
2023-05-12T21:59:20.963Z,16.52
2023-05-12T22:01:50.910Z,16.45
2023-05-12T22:04:20.902Z,16.36
2023-05-12T22:06:51.065Z,16.27
2023-05-12T22:09:23.673Z,16.22
2023-05-12T22:11:53.711Z,16.23
2023-05-12T22:14:23.857Z,16.22
2023-05-12T22:16:53.991Z,16.21
2023-05-12T22:19:23.988Z,16.12
2023-05-12T22:21:55.087Z,16.03
2023-05-12T22:24:27.614Z,16.02
2023-05-12T22:26:57.530Z,16.05
2023-05-12T22:29:27.526Z,16.05
2023-05-12T22:31:57.370Z,16.07
2023-05-12T22:34:29.656Z,16.05
2023-05-12T22:36:59.722Z,16.00
2023-05-12T22:39:32.234Z,15.89
2023-05-12T22:42:03.387Z,15.82
2023-05-12T22:44:33.400Z,15.78
2023-05-12T22:47:03.389Z,15.74
2023-05-12T22:49:33.278Z,15.71
2023-05-12T22:52:03.158Z,15.65
2023-05-12T22:54:36.016Z,15.60
2023-05-12T22:57:06.074Z,15.57
2023-05-12T22:59:36.043Z,15.56
2023-05-12T23:02:05.948Z,15.54
2023-05-12T23:04:36.137Z,15.51
2023-05-12T23:07:08.914Z,15.48
2023-05-12T23:09:41.679Z,15.46
2023-05-12T23:12:12.047Z,15.44
2023-05-12T23:14:41.910Z,15.41
2023-05-12T23:17:11.968Z,15.37
2023-05-12T23:19:41.796Z,15.35
2023-05-12T23:22:11.695Z,15.33
2023-05-12T23:24:44.477Z,15.30
2023-05-12T23:27:14.468Z,15.26
2023-05-12T23:29:44.340Z,15.21
2023-05-12T23:32:14.322Z,15.14
2023-05-12T23:34:44.926Z,15.09
2023-05-12T23:37:14.775Z,15.07
2023-05-12T23:39:49.251Z,15.04
2023-05-12T23:42:19.581Z,15.02
2023-05-12T23:44:49.446Z,15.00
2023-05-12T23:47:19.767Z,14.97
2023-05-12T23:49:49.590Z,14.96
2023-05-12T23:52:19.491Z,14.95
2023-05-12T23:54:52.000Z,14.93
2023-05-12T23:57:22.157Z,14.91
2023-05-12T23:59:52.075Z,14.88
